Time;durP1;ratioP1;P1;durP2;ratioP2;P2;SDS_P1;SDS_P2;PMS_P1;PMS_P2;Temp;Humidity;BMP_temperature;BMP_pressure;BME280_temperature;BME280_humidity;BME280_pressure;Samples;Min_cycle;Max_cycle;Signal;HPM_P1;HPM_P2
2021/01/18 00:00:46;;;;;;;;;;;;;;;29.27;17.74;101056.72;5096449;28;831;-32
2021/01/18 00:03:11;;;;;;;;;;;;;;;28.81;18.60;101058.63;5095504;28;922;-33
2021/01/18 00:05:36;;;;;;;;;;;;;;;28.23;19.04;101054.63;5096777;28;830;-33
2021/01/18 00:08:02;;;;;;;;;;;;;;;29.00;18.56;101052.84;5095948;28;993;-33
2021/01/18 00:10:27;;;;;;;;;;;;;;;29.26;18.32;101046.91;5096144;28;906;-37
2021/01/18 00:12:53;;;;;;;;;;;;;;;29.48;17.72;101051.53;5096407;28;787;-33
2021/01/18 00:15:19;;;;;;;;;;;;;;;28.91;18.62;101046.69;5096180;28;746;-32
2021/01/18 00:17:44;;;;;;;;;;;;;;;28.92;18.64;101051.91;5096069;28;1914;-35
2021/01/18 00:20:13;;;;;;;;;;;;;;;29.35;18.04;101055.78;5096700;28;821;-34
2021/01/18 00:22:41;;;;;;;;;;;;;;;29.06;17.97;101054.81;5087789;28;997;-39
2021/01/18 00:25:22;;;;;;;;;;;;;;;28.66;17.82;101047.78;5075547;28;1301;-36
2021/01/18 00:27:47;;;;;;;;;;;;;;;28.95;18.50;101054.22;5076150;28;803;-38
2021/01/18 00:30:14;;;;;;;;;;;;;;;29.28;17.86;101063.81;5075600;28;759;-34
2021/01/18 00:32:39;;;;;;;;;;;;;;;29.41;17.62;101059.59;5076040;28;831;-34
2021/01/18 00:35:05;;;;;;;;;;;;;;;28.40;18.90;101059.06;5075937;28;746;-35
2021/01/18 00:37:30;;;;;;;;;;;;;;;29.18;18.34;101061.41;5083295;28;1890;-33
2021/01/18 00:39:56;;;;;;;;;;;;;;;29.01;18.20;101062.66;5100468;28;814;-34
2021/01/18 00:42:21;;;;;;;;;;;;;;;29.21;17.89;101063.75;5100203;28;885;-39
2021/01/18 00:44:46;;;;;;;;;;;;;;;28.84;18.25;101063.66;5099554;28;867;-33
2021/01/18 00:47:12;;;;;;;;;;;;;;;28.65;18.51;101070.47;5099766;28;797;-39
2021/01/18 00:49:37;;;;;;;;;;;;;;;29.28;17.69;101071.13;5099954;28;786;-36
2021/01/18 00:52:02;;;;;;;;;;;;;;;29.49;17.71;101074.91;5099375;28;957;-36
2021/01/18 00:54:28;;;;;;;;;;;;;;;29.59;17.28;101067.34;5099605;28;757;-34
2021/01/18 00:56:53;;;;;;;;;;;;;;;29.00;18.40;101075.34;5099727;28;814;-33
2021/01/18 00:59:18;;;;;;;;;;;;;;;29.31;17.75;101076.97;5099560;28;1898;-32
2021/01/18 01:01:43;;;;;;;;;;;;;;;29.35;17.57;101074.75;5099840;28;779;-34
2021/01/18 01:04:09;;;;;;;;;;;;;;;28.30;18.38;101070.09;5099405;28;878;-38
2021/01/18 01:06:34;;;;;;;;;;;;;;;27.95;19.21;101070.56;5099302;28;799;-31
2021/01/18 01:09:00;;;;;;;;;;;;;;;28.36;18.54;101072.97;5099536;28;934;-32
2021/01/18 01:11:25;;;;;;;;;;;;;;;29.00;17.56;101069.94;5099435;28;854;-30
2021/01/18 01:13:50;;;;;;;;;;;;;;;29.34;17.33;101075.78;5099264;28;834;-30
2021/01/18 01:16:15;;;;;;;;;;;;;;;27.83;19.18;101071.00;5099541;28;779;-36
2021/01/18 01:18:41;;;;;;;;;;;;;;;28.42;18.36;101068.69;5097638;28;1905;-37
2021/01/18 01:21:06;;;;;;;;;;;;;;;28.95;17.64;101075.91;5098728;28;845;-34
2021/01/18 01:23:31;;;;;;;;;;;;;;;29.15;17.29;101071.78;5083802;28;934;-31
2021/01/18 01:25:57;;;;;;;;;;;;;;;29.23;17.41;101078.97;5078794;28;1103;-35
2021/01/18 01:28:22;;;;;;;;;;;;;;;29.36;16.85;101078.28;5078803;28;764;-32
2021/01/18 01:30:47;;;;;;;;;;;;;;;28.51;18.04;101079.44;5078775;28;823;-32
2021/01/18 01:33:13;;;;;;;;;;;;;;;29.00;17.68;101079.91;5078742;28;791;-35
2021/01/18 01:35:38;;;;;;;;;;;;;;;28.89;17.67;101076.66;5078987;28;759;-32
2021/01/18 01:38:04;;;;;;;;;;;;;;;28.56;17.14;101079.72;5090331;28;1909;-37
2021/01/18 01:40:29;;;;;;;;;;;;;;;28.56;17.51;101085.94;5098875;28;720;-34
2021/01/18 01:42:54;;;;;;;;;;;;;;;29.14;16.46;101083.66;5098922;28;807;-35
2021/01/18 01:45:20;;;;;;;;;;;;;;;29.44;16.16;101091.72;5098553;28;757;-38
2021/01/18 01:47:55;;;;;;;;;;;;;;;29.55;16.02;101093.09;5098893;28;795;-33
2021/01/18 01:50:22;;;;;;;;;;;;;;;27.75;18.04;101084.56;5097450;28;806;-32
2021/01/18 01:52:48;;;;;;;;;;;;;;;28.54;16.80;101081.75;5098485;28;950;-38
2021/01/18 01:55:19;;;;;;;;;;;;;;;28.51;16.76;101090.25;5097493;28;744;-34
2021/01/18 01:57:44;;;;;;;;;;;;;;;28.23;17.45;101083.53;5098911;28;1894;-35
2021/01/18 02:00:09;;;;;;;;;;;;;;;28.43;17.13;101092.00;5098234;28;819;-31
2021/01/18 02:02:35;;;;;;;;;;;;;;;28.48;17.29;101089.59;5098200;28;847;-35
2021/01/18 02:05:04;;;;;;;;;;;;;;;29.10;16.25;101088.59;5097351;28;775;-35
2021/01/18 02:07:29;;;;;;;;;;;;;;;29.08;16.65;101091.50;5097481;28;910;-36
2021/01/18 02:09:55;;;;;;;;;;;;;;;29.20;16.39;101097.28;5098440;28;834;-34
2021/01/18 02:12:20;;;;;;;;;;;;;;;29.11;16.41;101094.88;5098481;28;862;-34
2021/01/18 02:14:57;;;;;;;;;;;;;;;28.48;16.84;101091.44;5096723;28;751;-32
2021/01/18 02:17:41;;;;;;;;;;;;;;;28.76;17.09;101098.94;5098203;28;1897;-37
2021/01/18 02:20:06;;;;;;;;;;;;;;;29.03;17.05;101103.94;5098031;28;783;-31
2021/01/18 02:22:32;;;;;;;;;;;;;;;29.11;16.98;101101.13;5090482;28;1009;-32
2021/01/18 02:24:57;;;;;;;;;;;;;;;29.00;17.09;101101.59;5077740;28;1087;-32
2021/01/18 02:27:31;;;;;;;;;;;;;;;27.63;18.38;101101.16;5077997;28;822;-32
2021/01/18 02:30:06;;;;;;;;;;;;;;;27.47;18.93;101099.41;5077751;28;787;-30
2021/01/18 02:32:34;;;;;;;;;;;;;;;27.52;18.77;101106.97;5077812;28;787;-31
2021/01/18 02:35:14;;;;;;;;;;;;;;;27.70;18.59;101108.59;5077448;28;779;-33
2021/01/18 02:37:47;;;;;;;;;;;;;;;28.03;18.09;101110.25;5085762;28;1902;-32
2021/01/18 02:40:16;;;;;;;;;;;;;;;28.86;17.11;101106.81;5097518;28;852;-33
2021/01/18 02:42:43;;;;;;;;;;;;;;;29.15;17.04;101107.00;5096176;28;826;-33
2021/01/18 02:45:08;;;;;;;;;;;;;;;28.96;17.32;101104.66;5096286;28;588;-37
2021/01/18 02:47:34;;;;;;;;;;;;;;;28.90;17.35;101109.97;5096897;28;771;-36
2021/01/18 02:49:59;;;;;;;;;;;;;;;28.43;17.99;101108.25;5095247;28;837;-33
2021/01/18 02:52:25;;;;;;;;;;;;;;;28.75;17.61;101115.38;5096209;28;1002;-33
2021/01/18 02:54:50;;;;;;;;;;;;;;;28.23;18.05;101111.44;5097637;28;799;-32
2021/01/18 02:57:15;;;;;;;;;;;;;;;27.92;18.28;101106.94;5097013;28;1979;-33
2021/01/18 02:59:44;;;;;;;;;;;;;;;28.68;17.83;101108.00;5095894;28;1314;-33
2021/01/18 03:02:15;;;;;;;;;;;;;;;29.03;16.99;101110.19;5097143;28;762;-35
2021/01/18 03:04:55;;;;;;;;;;;;;;;29.09;17.16;101111.31;5096952;28;751;-32
2021/01/18 03:07:39;;;;;;;;;;;;;;;27.92;18.36;101108.78;5095732;28;922;-31
2021/01/18 03:10:05;;;;;;;;;;;;;;;28.53;17.72;101118.81;5097157;28;859;-32
2021/01/18 03:12:34;;;;;;;;;;;;;;;28.80;17.44;101110.25;5097189;28;807;-28
2021/01/18 03:14:59;;;;;;;;;;;;;;;28.45;17.67;101118.88;5096052;28;914;-33
2021/01/18 03:17:26;;;;;;;;;;;;;;;28.71;17.57;101112.22;5097049;28;1964;-35
2021/01/18 03:19:51;;;;;;;;;;;;;;;28.84;17.33;101116.97;5095175;28;831;-32
2021/01/18 03:22:23;;;;;;;;;;;;;;;28.42;17.90;101103.00;5090421;28;943;-33
2021/01/18 03:24:49;;;;;;;;;;;;;;;28.50;17.78;101111.06;5076639;28;1309;-31
2021/01/18 03:27:14;;;;;;;;;;;;;;;28.24;18.03;101117.69;5076493;28;813;-32
2021/01/18 03:29:39;;;;;;;;;;;;;;;28.14;17.87;101114.38;5075837;28;724;-32
2021/01/18 03:32:06;;;;;;;;;;;;;;;28.64;17.69;101122.09;5076826;28;767;-33
2021/01/18 03:34:31;;;;;;;;;;;;;;;28.67;17.49;101113.59;5076370;28;862;-33
2021/01/18 03:36:57;;;;;;;;;;;;;;;28.77;17.59;101121.44;5078755;28;1020;-33
2021/01/18 03:39:22;;;;;;;;;;;;;;;27.96;18.34;101116.34;5096762;28;1906;-36
2021/01/18 03:41:47;;;;;;;;;;;;;;;27.60;18.53;101120.44;5096559;28;862;-36
2021/01/18 03:44:12;;;;;;;;;;;;;;;28.33;17.80;101123.88;5096647;28;834;-34
2021/01/18 03:46:42;;;;;;;;;;;;;;;28.70;17.43;101124.06;5096970;28;849;-31
2021/01/18 03:49:07;;;;;;;;;;;;;;;28.82;17.45;101125.28;5096275;28;901;-32
2021/01/18 03:51:33;;;;;;;;;;;;;;;27.58;18.76;101127.88;5096776;28;871;-36
2021/01/18 03:53:58;;;;;;;;;;;;;;;27.53;18.85;101129.44;5096178;28;986;-29
2021/01/18 03:56:23;;;;;;;;;;;;;;;27.35;19.20;101141.34;5096685;28;823;-30
2021/01/18 03:58:49;;;;;;;;;;;;;;;27.08;18.74;101141.59;5096262;28;1906;-32
2021/01/18 04:01:14;;;;;;;;;;;;;;;27.69;18.73;101142.06;5096477;28;807;-29
2021/01/18 04:03:40;;;;;;;;;;;;;;;28.43;17.80;101140.72;5096960;28;881;-33
2021/01/18 04:06:05;;;;;;;;;;;;;;;27.89;18.42;101138.91;5096446;28;798;-33
2021/01/18 04:08:31;;;;;;;;;;;;;;;27.51;19.06;101157.47;5096053;28;954;-32
2021/01/18 04:10:56;;;;;;;;;;;;;;;28.33;18.01;101149.06;5096381;28;763;-32
2021/01/18 04:13:21;;;;;;;;;;;;;;;27.91;18.77;101148.50;5098003;28;825;-39
2021/01/18 04:15:46;;;;;;;;;;;;;;;28.30;18.01;101148.56;5100499;28;851;-36
2021/01/18 04:18:12;;;;;;;;;;;;;;;27.48;15.92;101160.53;5100558;28;1968;-39
2021/01/18 04:20:37;;;;;;;;;;;;;;;25.20;17.82;101152.56;5100312;28;811;-38
2021/01/18 04:23:04;;;;;;;;;;;;;;;27.34;17.75;101156.69;5088159;28;1091;-28
2021/01/18 04:25:29;;;;;;;;;;;;;;;26.66;18.54;101159.69;5079848;28;1189;-37
2021/01/18 04:27:55;;;;;;;;;;;;;;;26.56;19.13;101164.44;5079589;28;1230;-31
2021/01/18 04:30:21;;;;;;;;;;;;;;;27.08;18.64;101168.59;5079997;28;783;-38
2021/01/18 04:32:58;;;;;;;;;;;;;;;27.57;18.32;101177.56;5080145;28;803;-36
2021/01/18 04:35:24;;;;;;;;;;;;;;;27.38;19.00;101173.41;5079940;28;752;-38
2021/01/18 04:37:49;;;;;;;;;;;;;;;27.36;19.13;101176.28;5089093;28;1926;-28
2021/01/18 04:40:18;;;;;;;;;;;;;;;27.14;19.48;101177.88;5100201;28;755;-31
2021/01/18 04:42:43;;;;;;;;;;;;;;;27.69;19.02;101180.75;5099920;28;852;-27
2021/01/18 04:45:09;;;;;;;;;;;;;;;27.62;19.07;101185.13;5100044;28;758;-31
2021/01/18 04:47:35;;;;;;;;;;;;;;;27.67;18.65;101192.69;5099791;28;890;-29
2021/01/18 04:50:00;;;;;;;;;;;;;;;27.63;18.99;101193.06;5098411;28;842;-31
2021/01/18 04:52:44;;;;;;;;;;;;;;;27.96;18.98;101193.94;5099652;28;918;-30
2021/01/18 04:55:09;;;;;;;;;;;;;;;28.10;18.71;101200.44;5099901;28;771;-30
2021/01/18 04:57:37;;;;;;;;;;;;;;;25.19;14.86;101194.78;5097384;28;1906;-39
2021/01/18 05:00:02;;;;;;;;;;;;;;;27.19;17.36;101204.34;5098690;28;834;-31
2021/01/18 05:02:28;;;;;;;;;;;;;;;27.87;18.03;101193.16;5100367;28;1165;-35
2021/01/18 05:04:53;;;;;;;;;;;;;;;28.05;17.86;101200.13;5098050;28;771;-48
2021/01/18 05:07:21;;;;;;;;;;;;;;;28.31;17.79;101198.97;5098242;28;1515;-31
2021/01/18 05:09:54;;;;;;;;;;;;;;;28.22;18.20;101199.03;5099611;28;771;-36
2021/01/18 05:12:19;;;;;;;;;;;;;;;28.50;17.66;101204.91;5099169;28;747;-29
2021/01/18 05:14:44;;;;;;;;;;;;;;;28.48;17.74;101199.69;5098043;28;867;-27
2021/01/18 05:17:09;;;;;;;;;;;;;;;28.44;17.64;101203.78;5099354;28;1095;-28
2021/01/18 05:19:35;;;;;;;;;;;;;;;27.91;18.53;101202.56;5099241;28;1949;-32
2021/01/18 05:22:00;;;;;;;;;;;;;;;27.77;18.86;101209.59;5095078;28;1024;-34
2021/01/18 05:24:25;;;;;;;;;;;;;;;28.00;18.41;101197.97;5078864;28;1097;-34
2021/01/18 05:27:00;;;;;;;;;;;;;;;28.41;17.90;101204.16;5077450;28;739;-30
2021/01/18 05:29:30;;;;;;;;;;;;;;;28.15;18.22;101206.16;5077556;28;870;-28
2021/01/18 05:31:55;;;;;;;;;;;;;;;27.72;19.03;101199.31;5077774;28;839;-32
2021/01/18 05:34:20;;;;;;;;;;;;;;;28.27;18.05;101203.03;5077478;28;799;-28
2021/01/18 05:36:47;;;;;;;;;;;;;;;27.65;19.11;101208.25;5076929;28;1311;-30
2021/01/18 05:39:21;;;;;;;;;;;;;;;28.60;17.99;101202.81;5097311;28;1910;-34
2021/01/18 05:41:47;;;;;;;;;;;;;;;28.64;17.94;101200.59;5097701;28;728;-28
2021/01/18 05:44:12;;;;;;;;;;;;;;;28.70;18.22;101207.97;5098223;28;762;-35
2021/01/18 05:46:39;;;;;;;;;;;;;;;28.74;17.93;101201.19;5097344;28;837;-33
2021/01/18 05:49:05;;;;;;;;;;;;;;;28.01;18.45;101202.34;5097497;28;882;-30
2021/01/18 05:51:31;;;;;;;;;;;;;;;27.84;19.43;101212.44;5097495;28;828;-34
2021/01/18 05:53:56;;;;;;;;;;;;;;;28.59;18.29;101215.50;5096153;28;1037;-28
2021/01/18 05:56:22;;;;;;;;;;;;;;;28.83;18.33;101210.91;5097477;28;798;-35
2021/01/18 05:58:47;;;;;;;;;;;;;;;28.87;18.02;101214.09;5096505;28;1950;-30
2021/01/18 06:01:13;;;;;;;;;;;;;;;27.58;19.94;101216.22;5095659;28;984;-26
2021/01/18 06:03:38;;;;;;;;;;;;;;;27.73;19.53;101219.06;5097302;28;746;-32
2021/01/18 06:06:03;;;;;;;;;;;;;;;28.52;18.59;101211.00;5097648;28;727;-32
2021/01/18 06:08:29;;;;;;;;;;;;;;;28.29;18.82;101206.41;5096800;28;950;-29
2021/01/18 06:11:01;;;;;;;;;;;;;;;28.88;18.57;101213.06;5097085;28;814;-30
2021/01/18 06:13:29;;;;;;;;;;;;;;;29.21;17.95;101214.63;5097749;28;836;-26
2021/01/18 06:16:15;;;;;;;;;;;;;;;29.10;18.00;101218.63;5097238;28;805;-28
2021/01/18 06:18:40;;;;;;;;;;;;;;;27.95;19.23;101225.53;5096484;28;1964;-29
2021/01/18 06:21:06;;;;;;;;;;;;;;;29.06;18.27;101220.84;5097219;28;772;-33
2021/01/18 06:23:32;;;;;;;;;;;;;;;28.96;18.46;101225.69;5081603;28;953;-30
2021/01/18 06:25:57;;;;;;;;;;;;;;;28.40;18.51;101224.97;5052592;28;706480;-31
2021/01/18 06:28:24;;;;;;;;;;;;;;;27.87;19.13;101236.41;5077761;28;763;-31
2021/01/18 06:30:59;;;;;;;;;;;;;;;28.76;18.55;101233.47;5078108;28;797;-29
2021/01/18 06:33:43;;;;;;;;;;;;;;;29.08;17.83;101231.50;5077588;28;807;-34
2021/01/18 06:36:11;;;;;;;;;;;;;;;29.28;17.60;101233.69;5076831;28;847;-35
2021/01/18 06:38:38;;;;;;;;;;;;;;;28.04;19.10;101241.72;5093463;28;1909;-30
2021/01/18 06:41:03;;;;;;;;;;;;;;;28.48;18.29;101230.31;5097148;28;1031;-32
2021/01/18 06:43:28;;;;;;;;;;;;;;;27.90;17.74;101241.44;5096005;28;1210;-33
2021/01/18 06:45:53;;;;;;;;;;;;;;;27.97;17.95;101244.28;5097452;28;1273;-31
2021/01/18 06:48:19;;;;;;;;;;;;;;;26.79;19.62;101240.16;5097529;28;779;-31
2021/01/18 06:50:44;;;;;;;;;;;;;;;27.47;18.99;101245.31;5095863;28;1039;-29
2021/01/18 06:53:25;;;;;;;;;;;;;;;27.80;18.69;101259.75;5095840;28;1246;-33
2021/01/18 06:55:56;;;;;;;;;;;;;;;27.32;19.29;101255.13;5097260;28;776;-33
2021/01/18 06:58:47;;;;;;;;;;;;;;;28.38;18.42;101264.88;5097439;28;1901;-28
2021/01/18 07:01:13;;;;;;;;;;;;;;;28.66;18.27;101264.34;5094800;28;1085;-30
2021/01/18 07:03:39;;;;;;;;;;;;;;;29.05;18.01;101273.34;5097305;28;819;-31
2021/01/18 07:06:11;;;;;;;;;;;;;;;28.92;18.11;101273.97;5097482;28;814;-29
2021/01/18 07:08:37;;;;;;;;;;;;;;;28.95;18.18;101267.31;5095974;28;946;-30
2021/01/18 07:11:09;;;;;;;;;;;;;;;29.09;17.80;101274.66;5095696;28;811;-34
2021/01/18 07:13:34;;;;;;;;;;;;;;;28.54;18.70;101277.47;5097329;28;744;-30
2021/01/18 07:15:59;;;;;;;;;;;;;;;28.00;18.86;101279.09;5096405;28;776;-29
2021/01/18 07:18:25;;;;;;;;;;;;;;;28.55;18.65;101276.44;5095274;28;1963;-30
2021/01/18 07:20:50;;;;;;;;;;;;;;;29.02;17.96;101286.41;5096216;28;814;-34
2021/01/18 07:23:42;;;;;;;;;;;;;;;29.18;17.87;101277.28;5082268;28;1012;-33
2021/01/18 07:26:14;;;;;;;;;;;;;;;28.56;18.60;101293.53;5074344;28;1605;-31
2021/01/18 07:28:39;;;;;;;;;;;;;;;28.61;18.70;101293.84;5092323;28;800;-31
2021/01/18 07:31:04;;;;;;;;;;;;;;;28.08;19.24;101291.72;5095235;28;808;-31
2021/01/18 07:33:30;;;;;;;;;;;;;;;28.03;19.16;101286.84;5096903;28;905;-31
2021/01/18 07:35:55;;;;;;;;;;;;;;;27.30;20.12;101287.72;5095542;28;827;-31
2021/01/18 07:38:21;;;;;;;;;;;;;;;28.25;19.02;101287.06;5094357;28;1909;-29
2021/01/18 07:41:05;;;;;;;;;;;;;;;28.83;18.34;101293.97;5097117;28;805;-32
2021/01/18 07:43:33;;;;;;;;;;;;;;;29.04;18.20;101285.22;5096869;28;831;-33
2021/01/18 07:46:18;;;;;;;;;;;;;;;28.54;19.00;101291.00;5096347;28;887;-30
2021/01/18 07:48:43;;;;;;;;;;;;;;;28.53;18.60;101286.59;5096687;28;1521;-31
2021/01/18 07:51:08;;;;;;;;;;;;;;;27.53;19.89;101292.41;5096703;28;771;-35
2021/01/18 07:53:34;;;;;;;;;;;;;;;27.28;20.39;101289.75;5094812;28;1001;-33
2021/01/18 07:56:02;;;;;;;;;;;;;;;27.67;20.10;101292.69;5096736;28;763;-32
2021/01/18 07:58:29;;;;;;;;;;;;;;;27.54;19.86;101301.34;5096138;28;1898;-33
2021/01/18 08:01:05;;;;;;;;;;;;;;;27.42;19.87;101292.75;5096066;28;923;-33
2021/01/18 08:03:30;;;;;;;;;;;;;;;28.23;18.75;101298.06;5096722;28;839;-32
2021/01/18 08:06:05;;;;;;;;;;;;;;;28.65;18.52;101299.72;5096351;28;746;-30
2021/01/18 08:08:31;;;;;;;;;;;;;;;28.91;18.13;101290.38;5096226;28;1012;-32
2021/01/18 08:11:00;;;;;;;;;;;;;;;28.89;18.38;101296.00;5096536;28;789;-33
2021/01/18 08:13:29;;;;;;;;;;;;;;;28.22;19.06;101299.09;5096270;28;803;-31
2021/01/18 08:15:55;;;;;;;;;;;;;;;28.25;18.92;101297.91;5096211;28;882;-31
2021/01/18 08:18:27;;;;;;;;;;;;;;;28.36;18.92;101294.81;5094647;28;1893;-32
2021/01/18 08:20:52;;;;;;;;;;;;;;;28.73;18.48;101295.09;5096702;28;760;-31
2021/01/18 08:23:36;;;;;;;;;;;;;;;28.62;18.57;101295.50;5082323;28;1016;-32
2021/01/18 08:26:04;;;;;;;;;;;;;;;28.63;18.29;101291.75;5076020;28;1070;-35
2021/01/18 08:28:29;;;;;;;;;;;;;;;28.15;19.19;101290.00;5094706;28;869;-32
2021/01/18 08:30:57;;;;;;;;;;;;;;;28.42;18.78;101295.13;5096371;28;795;-33
2021/01/18 08:33:25;;;;;;;;;;;;;;;28.91;18.07;101287.69;5096227;28;878;-31
2021/01/18 08:35:50;;;;;;;;;;;;;;;28.63;18.63;101285.53;5094800;28;782;-32
2021/01/18 08:38:20;;;;;;;;;;;;;;;27.85;19.51;101284.41;5095537;28;1972;-34
2021/01/18 08:40:46;;;;;;;;;;;;;;;28.10;19.08;101278.88;5095769;28;834;-36
2021/01/18 08:43:11;;;;;;;;;;;;;;;27.74;19.21;101286.44;5095930;28;869;-32
2021/01/18 08:45:38;;;;;;;;;;;;;;;28.52;18.43;101286.78;5095928;28;775;-33
2021/01/18 08:48:04;;;;;;;;;;;;;;;28.93;18.20;101283.75;5096230;28;797;-33
2021/01/18 08:50:30;;;;;;;;;;;;;;;29.00;18.11;101281.19;5096379;28;712;-32
2021/01/18 08:52:56;;;;;;;;;;;;;;;28.08;19.19;101289.88;5095559;28;950;-31
2021/01/18 08:55:31;;;;;;;;;;;;;;;28.14;19.42;101285.63;5095740;28;859;-32
2021/01/18 08:58:02;;;;;;;;;;;;;;;28.99;18.67;101286.78;5096008;28;1914;-34
2021/01/18 09:00:48;;;;;;;;;;;;;;;29.27;18.21;101286.19;5099446;28;752;-31
2021/01/18 09:03:17;;;;;;;;;;;;;;;29.08;18.49;101283.81;5099163;28;1617;-38
2021/01/18 09:05:42;;;;;;;;;;;;;;;29.25;17.75;101282.81;5099864;28;751;-36
2021/01/18 09:08:08;;;;;;;;;;;;;;;28.85;17.82;101276.56;5098656;28;938;-36
2021/01/18 09:10:33;;;;;;;;;;;;;;;28.94;18.74;101277.34;5099719;28;771;-31
2021/01/18 09:13:03;;;;;;;;;;;;;;;28.90;18.76;101276.00;5099891;28;778;-37
2021/01/18 09:15:28;;;;;;;;;;;;;;;28.57;18.88;101281.66;5099200;28;744;-37
2021/01/18 09:17:53;;;;;;;;;;;;;;;28.58;18.63;101276.06;5099070;28;1906;-29
2021/01/18 09:20:18;;;;;;;;;;;;;;;28.81;18.54;101275.22;5099373;28;794;-32
2021/01/18 09:22:44;;;;;;;;;;;;;;;29.27;17.85;101275.34;5090012;28;1060;-37
2021/01/18 09:25:10;;;;;;;;;;;;;;;28.82;18.23;101276.91;5078974;28;1428;-30
2021/01/18 09:27:36;;;;;;;;;;;;;;;28.91;18.28;101274.97;5079118;28;980;-30
2021/01/18 09:30:01;;;;;;;;;;;;;;;28.74;18.54;101268.88;5078528;28;748;-31
2021/01/18 09:32:27;;;;;;;;;;;;;;;28.67;18.71;101267.88;5079475;28;722;-28
2021/01/18 09:35:08;;;;;;;;;;;;;;;29.19;17.87;101266.28;5079316;28;824;-28
2021/01/18 09:37:34;;;;;;;;;;;;;;;29.19;18.16;101262.72;5085852;28;1967;-30
2021/01/18 09:40:03;;;;;;;;;;;;;;;28.98;17.91;101258.84;5099224;28;764;-36
2021/01/18 09:42:29;;;;;;;;;;;;;;;28.80;18.02;101256.44;5098986;28;823;-35
2021/01/18 09:44:54;;;;;;;;;;;;;;;28.99;18.51;101249.72;5098418;28;885;-27
2021/01/18 09:47:19;;;;;;;;;;;;;;;29.11;17.98;101255.53;5099050;28;766;-34
2021/01/18 09:49:45;;;;;;;;;;;;;;;28.71;18.66;101253.81;5098776;28;803;-36
2021/01/18 09:52:10;;;;;;;;;;;;;;;28.84;17.79;101245.06;5098198;28;945;-31
2021/01/18 09:54:39;;;;;;;;;;;;;;;28.89;17.65;101240.97;5097796;28;756;-32
2021/01/18 09:57:06;;;;;;;;;;;;;;;28.74;18.36;101244.50;5098951;28;819;-35
2021/01/18 09:59:32;;;;;;;;;;;;;;;28.64;18.52;101236.63;5096768;28;1972;-28
2021/01/18 10:01:57;;;;;;;;;;;;;;;28.67;18.83;101238.13;5097559;28;779;-33
2021/01/18 10:04:23;;;;;;;;;;;;;;;28.68;18.73;101227.09;5097302;28;783;-28
2021/01/18 10:06:49;;;;;;;;;;;;;;;29.10;17.73;101221.34;5098040;28;918;-36
2021/01/18 10:09:15;;;;;;;;;;;;;;;28.75;17.78;101220.94;5098426;28;795;-35
2021/01/18 10:11:40;;;;;;;;;;;;;;;28.54;18.49;101219.78;5097033;28;803;-29
2021/01/18 10:14:05;;;;;;;;;;;;;;;28.34;18.87;101217.56;5098024;28;819;-33
2021/01/18 10:16:30;;;;;;;;;;;;;;;28.59;18.74;101217.38;5097299;28;823;-27
2021/01/18 10:18:56;;;;;;;;;;;;;;;29.18;18.05;101212.28;5098064;28;1972;-30
2021/01/18 10:21:31;;;;;;;;;;;;;;;29.45;17.43;101207.22;5097973;28;758;-31
2021/01/18 10:23:57;;;;;;;;;;;;;;;29.48;17.48;101208.75;5079111;28;992;-30
2021/01/18 10:26:25;;;;;;;;;;;;;;;29.00;16.71;101193.66;5077382;28;1063;-34
2021/01/18 10:28:53;;;;;;;;;;;;;;;28.44;16.26;101212.75;5077430;28;819;-37
2021/01/18 10:31:39;;;;;;;;;;;;;;;28.40;15.64;101195.19;5077907;28;748;-38
2021/01/18 10:34:14;;;;;;;;;;;;;;;28.33;14.92;101202.34;5085789;28;1683;-39
2021/01/18 10:36:40;;;;;;;;;;;;;;;28.70;15.86;101207.97;5097197;28;1256;-38
2021/01/18 10:39:05;;;;;;;;;;;;;;;28.64;15.77;101203.28;5077200;28;1968;-35
2021/01/18 10:41:32;;;;;;;;;;;;;;;28.83;19.45;101188.38;5090613;28;1106;-36
2021/01/18 10:44:04;;;;;;;;;;;;;;;27.62;23.04;101195.94;5096793;28;1529;-42
2021/01/18 10:46:29;;;;;;;;;;;;;;;27.67;19.39;101188.16;5094232;28;1233;-35
2021/01/18 10:48:55;;;;;;;;;;;;;;;28.46;15.17;101180.09;5096427;28;1382;-36
2021/01/18 10:51:24;;;;;;;;;;;;;;;28.64;15.41;101176.22;5095954;28;1303;-42
2021/01/18 10:53:50;;;;;;;;;;;;;;;28.21;16.35;101164.03;5094189;28;1030;-40
2021/01/18 10:56:15;;;;;;;;;;;;;;;28.07;16.45;101161.09;5095536;28;1358;-42
2021/01/18 10:58:41;;;;;;;;;;;;;;;28.35;16.33;101162.44;5096638;28;1909;-38
2021/01/18 11:01:10;;;;;;;;;;;;;;;28.89;16.21;101162.44;5097099;28;1311;-37
2021/01/18 11:03:35;;;;;;;;;;;;;;;28.96;16.00;101166.13;5097585;28;788;-38
2021/01/18 11:06:08;;;;;;;;;;;;;;;29.32;15.87;101159.13;5097106;28;882;-39
2021/01/18 11:08:33;;;;;;;;;;;;;;;29.10;16.36;101153.63;5097191;28;942;-34
2021/01/18 11:10:58;;;;;;;;;;;;;;;29.54;16.18;101156.47;5097660;28;993;-35
2021/01/18 11:13:24;;;;;;;;;;;;;;;29.09;16.42;101154.66;5097059;28;772;-39
2021/01/18 11:15:49;;;;;;;;;;;;;;;29.26;16.56;101149.03;5095576;28;1258;-39
2021/01/18 11:18:15;;;;;;;;;;;;;;;28.76;16.72;101142.25;5096816;28;1905;-35
2021/01/18 11:20:40;;;;;;;;;;;;;;;28.97;17.00;101151.56;5097163;28;722;-36
2021/01/18 11:23:12;;;;;;;;;;;;;;;29.75;16.26;101155.72;5094738;28;922;-35
2021/01/18 11:25:37;;;;;;;;;;;;;;;29.86;15.66;101146.25;5097069;28;1087;-34
2021/01/18 11:28:06;;;;;;;;;;;;;;;28.41;17.50;101139.22;5096951;28;732;-32
2021/01/18 11:30:31;;;;;;;;;;;;;;;29.06;17.40;101136.88;5096640;28;874;-35
2021/01/18 11:32:56;;;;;;;;;;;;;;;29.20;17.01;101140.63;5097120;28;766;-34
2021/01/18 11:35:22;;;;;;;;;;;;;;;28.82;16.94;101146.09;5097010;28;859;-44
2021/01/18 11:37:47;;;;;;;;;;;;;;;28.80;17.35;101149.00;5096393;28;1914;-34
2021/01/18 11:40:12;;;;;;;;;;;;;;;29.42;16.98;101142.56;5096860;28;857;-42
2021/01/18 11:42:38;;;;;;;;;;;;;;;29.01;17.46;101150.16;5096327;28;828;-39
2021/01/18 11:45:04;;;;;;;;;;;;;;;28.53;17.83;101140.44;5096394;28;835;-35
2021/01/18 11:47:33;;;;;;;;;;;;;;;29.09;17.21;101160.88;5096912;28;774;-34
2021/01/18 11:49:58;;;;;;;;;;;;;;;29.47;17.34;101164.53;5096462;28;818;-33
2021/01/18 11:52:23;;;;;;;;;;;;;;;29.42;17.22;101159.69;5096188;28;997;-35
2021/01/18 11:54:49;;;;;;;;;;;;;;;29.08;17.27;101158.38;5096715;28;803;-35
2021/01/18 11:57:14;;;;;;;;;;;;;;;29.03;17.59;101148.09;5096727;28;779;-43
2021/01/18 11:59:39;;;;;;;;;;;;;;;28.72;18.17;101147.22;5096040;28;1965;-32
2021/01/18 12:02:04;;;;;;;;;;;;;;;29.31;17.80;101150.16;5096580;28;835;-41
2021/01/18 12:04:30;;;;;;;;;;;;;;;29.04;17.88;101159.78;5096636;28;807;-33
2021/01/18 12:06:55;;;;;;;;;;;;;;;29.90;16.74;101157.53;5095815;28;925;-33
2021/01/18 12:09:20;;;;;;;;;;;;;;;29.67;16.94;101166.66;5096432;28;798;-35
2021/01/18 12:11:46;;;;;;;;;;;;;;;29.51;17.22;101162.28;5096612;28;787;-34
2021/01/18 12:14:11;;;;;;;;;;;;;;;29.23;17.49;101157.56;5095996;28;823;-35
2021/01/18 12:16:36;;;;;;;;;;;;;;;29.31;17.79;101158.28;5096588;28;811;-35
2021/01/18 12:19:02;;;;;;;;;;;;;;;29.28;17.48;101152.41;5096247;28;1902;-42
2021/01/18 12:21:27;;;;;;;;;;;;;;;28.94;17.53;101160.03;5095909;28;785;-31
2021/01/18 12:23:52;;;;;;;;;;;;;;;29.89;17.15;101162.13;5077723;28;946;-33
2021/01/18 12:26:18;;;;;;;;;;;;;;;30.20;16.78;101160.16;5078247;28;1170;-33
2021/01/18 12:28:43;;;;;;;;;;;;;;;30.42;16.49;101168.28;5095764;28;859;-33
2021/01/18 12:31:09;;;;;;;;;;;;;;;29.65;17.27;101161.44;5096479;28;766;-38
2021/01/18 12:33:34;;;;;;;;;;;;;;;30.54;16.29;101168.59;5096762;28;791;-35
2021/01/18 12:35:59;;;;;;;;;;;;;;;30.36;16.40;101163.66;5100158;28;767;-41
2021/01/18 12:38:24;;;;;;;;;;;;;;;29.96;16.90;101174.91;5099819;28;1963;-40
2021/01/18 12:40:50;;;;;;;;;;;;;;;29.95;16.92;101174.06;5100171;28;768;-38
2021/01/18 12:43:15;;;;;;;;;;;;;;;30.58;16.21;101185.34;5100005;28;767;-35
2021/01/18 12:45:41;;;;;;;;;;;;;;;30.73;16.22;101186.06;5100546;28;812;-35
2021/01/18 12:48:06;;;;;;;;;;;;;;;30.39;16.59;101185.81;5100025;28;889;-34
2021/01/18 12:50:31;;;;;;;;;;;;;;;30.38;16.53;101192.25;5100129;28;779;-33
2021/01/18 12:52:57;;;;;;;;;;;;;;;30.33;16.18;101192.00;5099745;28;1004;-34
2021/01/18 12:55:22;;;;;;;;;;;;;;;30.04;16.45;101194.63;5099887;28;768;-35